Terminal Aerodrome Forecast
Issued by NWS Upton, NY

Home | Current Version | Previous Version | Text Only | Print | Product List | Glossary On
Versions: 1 2 3 4 5 6 7 8 9 10 11 12 13 14 15 16 17 18 19 20 21 22 23 24 25 26 27 28 29 30 31 32 33 34 35 36 37 38 39 40 41 42 43 44 45 46 47 48 49 50
204
FTUS41 KOKX 152323
TAFJFK
TAF
KJFK 152323Z 1600/1706 21006KT P6SM FEW050 SCT200
     FM160300 26004KT P6SM BKN150
     FM160800 27004KT P6SM BKN100
     FM161000 30004KT P6SM BKN100
     FM161200 36004KT P6SM BKN090
     FM161400 05006KT P6SM BKN060
     FM161900 10007KT P6SM BKN050
     FM162100 15007KT P6SM BKN050
     FM170200 04005KT P6SM BKN050=

USA.gov is the U.S. government's official web portal to all federal, state and local government web resources and services.